KJAX

Jacksonville International Airport

Jacksonville, Florida, USA
METAR KJAX 190556Z 14003KT 10SM BKN200 12/09 A3008 RMK AO2 SLP186 T01170089 10161 20117 58008
Observed Flight Rules
Jan-19 @ 05:56 UTC (an hour ago) Visual Flight Rules
Wind Visibility Clouds
140° at 3 knots 10 miles
  • Broken at 20,000' AGL
Temperatures Readings
Current 12°C / 54°F
Dewpoint 9°C / 48°F
Humidity 82%
Altimeter 30.08" Hg
Pressure 1018.6 hPa
Elevation 10
METAR KJAX 190556Z 14003KT 10SM BKN200 12/09 A3008 RMK AO2 SLP186 T01170089 10161 20117 58008
Observed Flight Rules
Jan-19 @ 05:56 UTC
(an hour ago)
VFR
Wind Visibility
140° at 3 knots 10 miles
Clouds
  • Broken at 20,000' AGL
Temperature Dewpoint
12°C / 54°F 9°C / 48°F
Humidity Altimeter Pressure
82% 30.08" Hg 1018.6 hPa